sensor_id;sensor_type;location;lat;lon;timestamp;P1;durP1;ratioP1;P2;durP2;ratioP2
10769;SDS011;5437;50.852;4.438;2023-06-19T00:01:22;1.73;;;1.55;;
10769;SDS011;5437;50.852;4.438;2023-06-19T00:03:49;1.70;;;1.52;;
10769;SDS011;5437;50.852;4.438;2023-06-19T00:06:15;2.97;;;1.83;;
10769;SDS011;5437;50.852;4.438;2023-06-19T00:08:41;2.38;;;1.88;;
10769;SDS011;5437;50.852;4.438;2023-06-19T00:11:07;2.90;;;1.80;;
10769;SDS011;5437;50.852;4.438;2023-06-19T00:13:33;2.55;;;1.77;;
10769;SDS011;5437;50.852;4.438;2023-06-19T00:15:59;2.20;;;1.83;;
10769;SDS011;5437;50.852;4.438;2023-06-19T00:18:26;3.17;;;2.10;;
10769;SDS011;5437;50.852;4.438;2023-06-19T00:20:52;2.65;;;2.15;;
10769;SDS011;5437;50.852;4.438;2023-06-19T00:23:21;3.17;;;2.10;;
10769;SDS011;5437;50.852;4.438;2023-06-19T00:25:47;2.80;;;1.77;;
10769;SDS011;5437;50.852;4.438;2023-06-19T00:28:13;1.88;;;1.67;;
10769;SDS011;5437;50.852;4.438;2023-06-19T00:30:40;2.40;;;1.83;;
10769;SDS011;5437;50.852;4.438;2023-06-19T00:33:07;2.67;;;1.73;;
10769;SDS011;5437;50.852;4.438;2023-06-19T00:35:33;1.85;;;1.67;;
10769;SDS011;5437;50.852;4.438;2023-06-19T00:37:59;2.90;;;1.70;;
10769;SDS011;5437;50.852;4.438;2023-06-19T00:40:32;3.08;;;1.77;;
10769;SDS011;5437;50.852;4.438;2023-06-19T00:42:58;3.08;;;1.65;;
10769;SDS011;5437;50.852;4.438;2023-06-19T00:45:25;2.03;;;1.45;;
10769;SDS011;5437;50.852;4.438;2023-06-19T00:47:51;1.60;;;1.45;;
10769;SDS011;5437;50.852;4.438;2023-06-19T00:50:18;1.60;;;1.40;;
10769;SDS011;5437;50.852;4.438;2023-06-19T00:52:47;2.60;;;1.55;;
10769;SDS011;5437;50.852;4.438;2023-06-19T00:55:13;1.40;;;1.30;;
10769;SDS011;5437;50.852;4.438;2023-06-19T00:57:41;1.65;;;1.50;;
10769;SDS011;5437;50.852;4.438;2023-06-19T01:00:07;2.42;;;1.80;;
10769;SDS011;5437;50.852;4.438;2023-06-19T01:02:33;1.83;;;1.50;;
10769;SDS011;5437;50.852;4.438;2023-06-19T01:04:59;1.75;;;1.50;;
10769;SDS011;5437;50.852;4.438;2023-06-19T01:07:30;1.83;;;1.45;;
10769;SDS011;5437;50.852;4.438;2023-06-19T01:09:59;1.52;;;1.40;;
10769;SDS011;5437;50.852;4.438;2023-06-19T01:12:35;2.28;;;1.42;;
10769;SDS011;5437;50.852;4.438;2023-06-19T01:15:03;1.35;;;1.25;;
10769;SDS011;5437;50.852;4.438;2023-06-19T01:17:30;1.48;;;1.38;;
10769;SDS011;5437;50.852;4.438;2023-06-19T01:19:56;1.50;;;1.40;;
10769;SDS011;5437;50.852;4.438;2023-06-19T01:22:29;3.60;;;1.70;;
10769;SDS011;5437;50.852;4.438;2023-06-19T01:24:55;3.22;;;1.67;;
10769;SDS011;5437;50.852;4.438;2023-06-19T01:27:23;2.35;;;1.67;;
10769;SDS011;5437;50.852;4.438;2023-06-19T01:29:50;2.08;;;1.58;;
10769;SDS011;5437;50.852;4.438;2023-06-19T01:32:20;3.53;;;1.60;;
10769;SDS011;5437;50.852;4.438;2023-06-19T01:34:48;3.03;;;1.90;;
10769;SDS011;5437;50.852;4.438;2023-06-19T01:37:15;1.85;;;1.75;;
10769;SDS011;5437;50.852;4.438;2023-06-19T01:39:42;2.40;;;1.80;;
10769;SDS011;5437;50.852;4.438;2023-06-19T01:42:08;2.80;;;1.90;;
10769;SDS011;5437;50.852;4.438;2023-06-19T01:44:36;2.53;;;2.33;;
10769;SDS011;5437;50.852;4.438;2023-06-19T01:47:11;2.40;;;1.70;;
10769;SDS011;5437;50.852;4.438;2023-06-19T01:49:38;1.63;;;1.52;;
10769;SDS011;5437;50.852;4.438;2023-06-19T01:52:04;1.70;;;1.60;;
10769;SDS011;5437;50.852;4.438;2023-06-19T01:54:31;2.42;;;1.98;;
10769;SDS011;5437;50.852;4.438;2023-06-19T01:56:57;2.17;;;1.90;;
10769;SDS011;5437;50.852;4.438;2023-06-19T01:59:23;1.90;;;1.80;;
10769;SDS011;5437;50.852;4.438;2023-06-19T02:01:49;1.90;;;1.80;;
10769;SDS011;5437;50.852;4.438;2023-06-19T02:04:15;2.83;;;2.38;;
10769;SDS011;5437;50.852;4.438;2023-06-19T02:06:41;2.10;;;1.90;;
10769;SDS011;5437;50.852;4.438;2023-06-19T02:09:07;2.13;;;1.92;;
10769;SDS011;5437;50.852;4.438;2023-06-19T02:11:33;3.85;;;2.10;;
10769;SDS011;5437;50.852;4.438;2023-06-19T02:13:59;3.33;;;2.00;;
10769;SDS011;5437;50.852;4.438;2023-06-19T02:16:25;2.20;;;1.95;;
10769;SDS011;5437;50.852;4.438;2023-06-19T02:18:51;2.10;;;1.90;;
10769;SDS011;5437;50.852;4.438;2023-06-19T02:21:17;3.45;;;2.17;;
10769;SDS011;5437;50.852;4.438;2023-06-19T02:23:43;2.13;;;1.92;;
10769;SDS011;5437;50.852;4.438;2023-06-19T02:26:09;1.92;;;1.80;;
10769;SDS011;5437;50.852;4.438;2023-06-19T02:28:35;2.50;;;1.83;;
10769;SDS011;5437;50.852;4.438;2023-06-19T02:31:01;2.00;;;1.80;;
10769;SDS011;5437;50.852;4.438;2023-06-19T02:33:27;2.85;;;2.00;;
10769;SDS011;5437;50.852;4.438;2023-06-19T02:35:54;2.15;;;1.95;;
10769;SDS011;5437;50.852;4.438;2023-06-19T02:38:24;2.25;;;1.90;;
10769;SDS011;5437;50.852;4.438;2023-06-19T02:40:50;1.70;;;1.60;;
10769;SDS011;5437;50.852;4.438;2023-06-19T02:43:16;2.80;;;1.83;;
10769;SDS011;5437;50.852;4.438;2023-06-19T02:45:42;2.30;;;2.10;;
10769;SDS011;5437;50.852;4.438;2023-06-19T02:48:08;2.47;;;2.20;;
10769;SDS011;5437;50.852;4.438;2023-06-19T02:50:35;2.55;;;2.05;;
10769;SDS011;5437;50.852;4.438;2023-06-19T02:53:01;3.10;;;2.50;;
10769;SDS011;5437;50.852;4.438;2023-06-19T02:55:27;2.15;;;1.92;;
10769;SDS011;5437;50.852;4.438;2023-06-19T02:57:53;2.53;;;2.30;;
10769;SDS011;5437;50.852;4.438;2023-06-19T03:00:19;3.67;;;2.50;;
10769;SDS011;5437;50.852;4.438;2023-06-19T03:02:45;2.35;;;2.15;;
10769;SDS011;5437;50.852;4.438;2023-06-19T03:05:13;2.35;;;2.15;;
10769;SDS011;5437;50.852;4.438;2023-06-19T03:07:40;3.10;;;2.42;;
10769;SDS011;5437;50.852;4.438;2023-06-19T03:10:07;2.92;;;2.63;;
10769;SDS011;5437;50.852;4.438;2023-06-19T03:12:33;2.88;;;2.67;;
10769;SDS011;5437;50.852;4.438;2023-06-19T03:14:59;3.03;;;2.72;;
10769;SDS011;5437;50.852;4.438;2023-06-19T03:17:25;4.38;;;3.08;;
10769;SDS011;5437;50.852;4.438;2023-06-19T03:19:51;3.10;;;2.80;;
10769;SDS011;5437;50.852;4.438;2023-06-19T03:22:19;4.03;;;3.40;;
10769;SDS011;5437;50.852;4.438;2023-06-19T03:24:46;4.10;;;3.58;;
10769;SDS011;5437;50.852;4.438;2023-06-19T03:27:12;3.85;;;3.45;;
10769;SDS011;5437;50.852;4.438;2023-06-19T03:29:38;4.72;;;3.67;;
10769;SDS011;5437;50.852;4.438;2023-06-19T03:32:04;4.35;;;3.58;;
10769;SDS011;5437;50.852;4.438;2023-06-19T03:34:30;4.00;;;3.15;;
10769;SDS011;5437;50.852;4.438;2023-06-19T03:36:56;4.45;;;3.65;;
10769;SDS011;5437;50.852;4.438;2023-06-19T03:39:22;5.22;;;3.55;;
10769;SDS011;5437;50.852;4.438;2023-06-19T03:41:48;6.03;;;3.90;;
10769;SDS011;5437;50.852;4.438;2023-06-19T03:44:14;4.55;;;3.55;;
10769;SDS011;5437;50.852;4.438;2023-06-19T03:46:40;6.35;;;4.25;;
10769;SDS011;5437;50.852;4.438;2023-06-19T03:49:07;5.40;;;4.60;;
10769;SDS011;5437;50.852;4.438;2023-06-19T03:51:34;7.63;;;4.75;;
10769;SDS011;5437;50.852;4.438;2023-06-19T03:54:00;8.60;;;5.72;;
10769;SDS011;5437;50.852;4.438;2023-06-19T03:56:26;6.38;;;4.95;;
10769;SDS011;5437;50.852;4.438;2023-06-19T03:58:52;7.13;;;5.15;;
10769;SDS011;5437;50.852;4.438;2023-06-19T04:01:18;8.20;;;5.28;;
10769;SDS011;5437;50.852;4.438;2023-06-19T04:03:44;7.97;;;5.60;;
10769;SDS011;5437;50.852;4.438;2023-06-19T04:06:11;7.47;;;5.55;;
10769;SDS011;5437;50.852;4.438;2023-06-19T04:08:37;8.18;;;5.60;;
10769;SDS011;5437;50.852;4.438;2023-06-19T04:11:03;8.00;;;5.43;;
10769;SDS011;5437;50.852;4.438;2023-06-19T04:13:29;5.75;;;4.68;;
10769;SDS011;5437;50.852;4.438;2023-06-19T04:15:55;6.78;;;5.05;;
10769;SDS011;5437;50.852;4.438;2023-06-19T04:18:21;8.77;;;5.55;;
10769;SDS011;5437;50.852;4.438;2023-06-19T04:20:47;6.90;;;4.85;;
10769;SDS011;5437;50.852;4.438;2023-06-19T04:23:13;7.22;;;5.22;;
10769;SDS011;5437;50.852;4.438;2023-06-19T04:25:39;6.45;;;5.00;;
10769;SDS011;5437;50.852;4.438;2023-06-19T04:28:05;6.68;;;5.03;;
10769;SDS011;5437;50.852;4.438;2023-06-19T04:30:31;7.50;;;5.10;;
10769;SDS011;5437;50.852;4.438;2023-06-19T04:32:57;7.65;;;4.80;;
10769;SDS011;5437;50.852;4.438;2023-06-19T04:35:23;6.97;;;4.55;;
10769;SDS011;5437;50.852;4.438;2023-06-19T04:37:50;6.10;;;4.20;;
10769;SDS011;5437;50.852;4.438;2023-06-19T04:40:16;4.85;;;4.05;;
10769;SDS011;5437;50.852;4.438;2023-06-19T04:42:42;5.72;;;4.45;;
10769;SDS011;5437;50.852;4.438;2023-06-19T04:45:08;7.28;;;4.53;;
10769;SDS011;5437;50.852;4.438;2023-06-19T04:47:34;6.95;;;4.68;;
10769;SDS011;5437;50.852;4.438;2023-06-19T04:50:00;5.60;;;4.13;;
10769;SDS011;5437;50.852;4.438;2023-06-19T04:52:26;6.07;;;4.70;;
10769;SDS011;5437;50.852;4.438;2023-06-19T04:54:52;7.07;;;5.05;;
10769;SDS011;5437;50.852;4.438;2023-06-19T04:57:18;6.07;;;4.93;;
10769;SDS011;5437;50.852;4.438;2023-06-19T04:59:44;8.63;;;5.35;;
10769;SDS011;5437;50.852;4.438;2023-06-19T05:02:10;7.45;;;5.35;;
10769;SDS011;5437;50.852;4.438;2023-06-19T05:04:37;6.40;;;5.25;;
10769;SDS011;5437;50.852;4.438;2023-06-19T05:07:03;7.70;;;5.72;;
10769;SDS011;5437;50.852;4.438;2023-06-19T05:09:29;7.03;;;4.82;;
10769;SDS011;5437;50.852;4.438;2023-06-19T05:11:56;7.63;;;5.10;;
10769;SDS011;5437;50.852;4.438;2023-06-19T05:14:22;7.55;;;5.43;;
10769;SDS011;5437;50.852;4.438;2023-06-19T05:16:48;8.90;;;5.32;;
10769;SDS011;5437;50.852;4.438;2023-06-19T05:19:14;8.15;;;5.65;;
10769;SDS011;5437;50.852;4.438;2023-06-19T05:21:40;6.43;;;5.05;;
10769;SDS011;5437;50.852;4.438;2023-06-19T05:24:06;7.45;;;5.20;;
10769;SDS011;5437;50.852;4.438;2023-06-19T05:26:32;8.35;;;5.40;;
10769;SDS011;5437;50.852;4.438;2023-06-19T05:28:58;7.78;;;5.63;;
10769;SDS011;5437;50.852;4.438;2023-06-19T05:31:24;7.63;;;5.20;;
10769;SDS011;5437;50.852;4.438;2023-06-19T05:33:50;8.10;;;5.50;;
10769;SDS011;5437;50.852;4.438;2023-06-19T05:36:16;7.68;;;5.97;;
10769;SDS011;5437;50.852;4.438;2023-06-19T05:38:43;8.57;;;5.53;;
10769;SDS011;5437;50.852;4.438;2023-06-19T05:41:09;8.30;;;5.90;;
10769;SDS011;5437;50.852;4.438;2023-06-19T05:43:35;9.38;;;6.47;;
10769;SDS011;5437;50.852;4.438;2023-06-19T05:46:01;8.48;;;6.15;;
10769;SDS011;5437;50.852;4.438;2023-06-19T05:48:27;10.18;;;6.35;;
10769;SDS011;5437;50.852;4.438;2023-06-19T05:50:54;10.02;;;6.15;;
10769;SDS011;5437;50.852;4.438;2023-06-19T05:53:20;10.63;;;6.40;;
10769;SDS011;5437;50.852;4.438;2023-06-19T05:55:46;8.35;;;5.90;;
10769;SDS011;5437;50.852;4.438;2023-06-19T05:58:12;7.75;;;5.80;;
10769;SDS011;5437;50.852;4.438;2023-06-19T06:00:38;7.82;;;5.93;;
10769;SDS011;5437;50.852;4.438;2023-06-19T06:03:04;9.77;;;6.63;;
10769;SDS011;5437;50.852;4.438;2023-06-19T06:05:30;8.98;;;6.95;;
10769;SDS011;5437;50.852;4.438;2023-06-19T06:07:56;8.80;;;6.53;;
10769;SDS011;5437;50.852;4.438;2023-06-19T06:10:23;10.75;;;6.47;;
10769;SDS011;5437;50.852;4.438;2023-06-19T06:12:50;9.27;;;6.90;;
10769;SDS011;5437;50.852;4.438;2023-06-19T06:15:16;9.20;;;6.57;;
10769;SDS011;5437;50.852;4.438;2023-06-19T06:17:42;10.02;;;6.53;;
10769;SDS011;5437;50.852;4.438;2023-06-19T06:20:08;9.63;;;6.55;;
10769;SDS011;5437;50.852;4.438;2023-06-19T06:22:37;9.48;;;6.57;;
10769;SDS011;5437;50.852;4.438;2023-06-19T06:25:03;10.90;;;6.95;;
10769;SDS011;5437;50.852;4.438;2023-06-19T06:27:29;10.57;;;6.57;;
10769;SDS011;5437;50.852;4.438;2023-06-19T06:29:55;9.52;;;6.65;;
10769;SDS011;5437;50.852;4.438;2023-06-19T06:32:21;10.18;;;6.88;;
10769;SDS011;5437;50.852;4.438;2023-06-19T06:34:47;10.77;;;7.40;;
10769;SDS011;5437;50.852;4.438;2023-06-19T06:37:13;9.63;;;6.72;;
10769;SDS011;5437;50.852;4.438;2023-06-19T06:39:42;9.80;;;6.93;;
10769;SDS011;5437;50.852;4.438;2023-06-19T06:42:08;9.00;;;7.63;;
10769;SDS011;5437;50.852;4.438;2023-06-19T06:44:34;11.45;;;7.85;;
10769;SDS011;5437;50.852;4.438;2023-06-19T06:47:00;10.52;;;7.50;;
10769;SDS011;5437;50.852;4.438;2023-06-19T06:49:26;11.00;;;8.15;;
10769;SDS011;5437;50.852;4.438;2023-06-19T06:51:52;10.10;;;6.97;;
10769;SDS011;5437;50.852;4.438;2023-06-19T06:54:18;9.88;;;7.10;;
10769;SDS011;5437;50.852;4.438;2023-06-19T06:56:45;9.98;;;7.22;;
10769;SDS011;5437;50.852;4.438;2023-06-19T06:59:13;9.63;;;6.60;;
10769;SDS011;5437;50.852;4.438;2023-06-19T07:01:41;8.88;;;6.22;;
10769;SDS011;5437;50.852;4.438;2023-06-19T07:04:07;8.93;;;6.45;;
10769;SDS011;5437;50.852;4.438;2023-06-19T07:06:33;10.02;;;6.55;;
10769;SDS011;5437;50.852;4.438;2023-06-19T07:08:59;7.88;;;6.20;;
10769;SDS011;5437;50.852;4.438;2023-06-19T07:11:25;8.82;;;6.25;;
10769;SDS011;5437;50.852;4.438;2023-06-19T07:13:51;8.20;;;5.95;;
10769;SDS011;5437;50.852;4.438;2023-06-19T07:16:17;10.13;;;6.75;;
10769;SDS011;5437;50.852;4.438;2023-06-19T07:18:43;9.07;;;6.07;;
10769;SDS011;5437;50.852;4.438;2023-06-19T07:21:11;7.30;;;5.78;;
10769;SDS011;5437;50.852;4.438;2023-06-19T07:23:40;8.13;;;5.63;;
10769;SDS011;5437;50.852;4.438;2023-06-19T07:26:07;8.65;;;6.03;;
10769;SDS011;5437;50.852;4.438;2023-06-19T07:28:33;9.05;;;6.00;;
10769;SDS011;5437;50.852;4.438;2023-06-19T07:31:01;7.95;;;5.55;;
10769;SDS011;5437;50.852;4.438;2023-06-19T07:33:27;8.32;;;5.60;;
10769;SDS011;5437;50.852;4.438;2023-06-19T07:35:53;7.90;;;5.85;;
10769;SDS011;5437;50.852;4.438;2023-06-19T07:38:19;7.93;;;5.53;;
10769;SDS011;5437;50.852;4.438;2023-06-19T07:40:45;8.05;;;5.90;;
10769;SDS011;5437;50.852;4.438;2023-06-19T07:43:11;9.30;;;5.80;;
10769;SDS011;5437;50.852;4.438;2023-06-19T07:45:37;6.95;;;5.28;;
10769;SDS011;5437;50.852;4.438;2023-06-19T07:48:03;7.68;;;5.40;;
10769;SDS011;5437;50.852;4.438;2023-06-19T07:50:29;8.43;;;6.18;;
10769;SDS011;5437;50.852;4.438;2023-06-19T07:52:56;6.90;;;5.28;;
10769;SDS011;5437;50.852;4.438;2023-06-19T07:55:22;8.00;;;5.85;;
10769;SDS011;5437;50.852;4.438;2023-06-19T07:57:49;7.15;;;5.60;;
10769;SDS011;5437;50.852;4.438;2023-06-19T08:00:17;6.43;;;5.15;;
10769;SDS011;5437;50.852;4.438;2023-06-19T08:02:43;8.30;;;5.82;;
10769;SDS011;5437;50.852;4.438;2023-06-19T08:05:10;7.93;;;5.10;;
10769;SDS011;5437;50.852;4.438;2023-06-19T08:07:36;8.63;;;5.93;;
10769;SDS011;5437;50.852;4.438;2023-06-19T08:10:03;6.97;;;4.95;;
10769;SDS011;5437;50.852;4.438;2023-06-19T08:12:29;6.80;;;5.53;;
10769;SDS011;5437;50.852;4.438;2023-06-19T08:14:55;9.07;;;5.63;;
10769;SDS011;5437;50.852;4.438;2023-06-19T08:17:21;6.38;;;5.20;;
10769;SDS011;5437;50.852;4.438;2023-06-19T08:19:47;6.95;;;5.22;;
10769;SDS011;5437;50.852;4.438;2023-06-19T08:22:13;6.78;;;5.22;;
10769;SDS011;5437;50.852;4.438;2023-06-19T08:24:39;6.38;;;4.90;;
10769;SDS011;5437;50.852;4.438;2023-06-19T08:27:06;8.30;;;4.72;;
10769;SDS011;5437;50.852;4.438;2023-06-19T08:29:32;6.10;;;4.53;;
10769;SDS011;5437;50.852;4.438;2023-06-19T08:31:58;6.22;;;4.65;;
10769;SDS011;5437;50.852;4.438;2023-06-19T08:34:24;5.65;;;4.93;;
10769;SDS011;5437;50.852;4.438;2023-06-19T08:36:50;6.82;;;4.70;;
10769;SDS011;5437;50.852;4.438;2023-06-19T08:39:17;6.70;;;4.95;;
10769;SDS011;5437;50.852;4.438;2023-06-19T08:41:45;6.63;;;5.25;;
10769;SDS011;5437;50.852;4.438;2023-06-19T08:44:11;6.30;;;4.88;;
10769;SDS011;5437;50.852;4.438;2023-06-19T08:46:37;5.63;;;4.38;;
10769;SDS011;5437;50.852;4.438;2023-06-19T08:49:05;5.53;;;4.70;;
10769;SDS011;5437;50.852;4.438;2023-06-19T08:51:31;4.82;;;4.32;;
10769;SDS011;5437;50.852;4.438;2023-06-19T08:54:04;5.47;;;4.43;;
10769;SDS011;5437;50.852;4.438;2023-06-19T08:56:31;4.90;;;4.07;;
10769;SDS011;5437;50.852;4.438;2023-06-19T08:59:12;4.40;;;3.80;;
10769;SDS011;5437;50.852;4.438;2023-06-19T09:01:38;6.30;;;4.65;;
10769;SDS011;5437;50.852;4.438;2023-06-19T09:04:11;5.55;;;4.30;;
10769;SDS011;5437;50.852;4.438;2023-06-19T09:06:50;5.20;;;4.18;;
10769;SDS011;5437;50.852;4.438;2023-06-19T09:09:17;6.32;;;4.57;;
10769;SDS011;5437;50.852;4.438;2023-06-19T09:11:43;6.97;;;4.65;;
10769;SDS011;5437;50.852;4.438;2023-06-19T09:14:10;5.50;;;4.60;;
10769;SDS011;5437;50.852;4.438;2023-06-19T09:16:36;5.60;;;4.38;;
10769;SDS011;5437;50.852;4.438;2023-06-19T09:19:03;6.30;;;4.53;;
10769;SDS011;5437;50.852;4.438;2023-06-19T09:21:29;5.47;;;4.47;;
10769;SDS011;5437;50.852;4.438;2023-06-19T09:23:55;5.95;;;4.43;;
10769;SDS011;5437;50.852;4.438;2023-06-19T09:26:27;5.38;;;4.47;;
10769;SDS011;5437;50.852;4.438;2023-06-19T09:28:53;6.68;;;4.10;;
10769;SDS011;5437;50.852;4.438;2023-06-19T09:31:19;6.53;;;5.10;;
10769;SDS011;5437;50.852;4.438;2023-06-19T09:33:45;5.63;;;5.10;;
10769;SDS011;5437;50.852;4.438;2023-06-19T09:36:11;5.32;;;4.78;;
10769;SDS011;5437;50.852;4.438;2023-06-19T09:38:38;4.95;;;4.45;;
10769;SDS011;5437;50.852;4.438;2023-06-19T09:41:05;5.47;;;4.40;;
10769;SDS011;5437;50.852;4.438;2023-06-19T09:43:39;6.05;;;4.53;;
10769;SDS011;5437;50.852;4.438;2023-06-19T09:46:06;5.13;;;4.63;;
10769;SDS011;5437;50.852;4.438;2023-06-19T09:48:33;5.65;;;4.75;;
10769;SDS011;5437;50.852;4.438;2023-06-19T09:51:21;6.38;;;4.30;;
10769;SDS011;5437;50.852;4.438;2023-06-19T09:53:47;5.45;;;4.32;;
10769;SDS011;5437;50.852;4.438;2023-06-19T09:56:13;6.72;;;4.50;;
10769;SDS011;5437;50.852;4.438;2023-06-19T09:58:40;6.88;;;5.00;;
10769;SDS011;5437;50.852;4.438;2023-06-19T10:01:08;5.00;;;4.18;;
10769;SDS011;5437;50.852;4.438;2023-06-19T10:03:34;4.20;;;3.75;;
10769;SDS011;5437;50.852;4.438;2023-06-19T10:06:01;4.78;;;4.28;;
10769;SDS011;5437;50.852;4.438;2023-06-19T10:08:32;5.28;;;3.88;;
10769;SDS011;5437;50.852;4.438;2023-06-19T10:11:03;6.40;;;4.75;;
10769;SDS011;5437;50.852;4.438;2023-06-19T10:13:33;5.15;;;4.40;;
10769;SDS011;5437;50.852;4.438;2023-06-19T10:16:00;6.13;;;4.57;;
10769;SDS011;5437;50.852;4.438;2023-06-19T10:18:26;4.55;;;4.07;;
10769;SDS011;5437;50.852;4.438;2023-06-19T10:20:55;5.75;;;4.05;;
10769;SDS011;5437;50.852;4.438;2023-06-19T10:23:23;5.57;;;4.50;;
10769;SDS011;5437;50.852;4.438;2023-06-19T10:28:19;5.70;;;4.28;;
10769;SDS011;5437;50.852;4.438;2023-06-19T10:30:58;5.45;;;4.28;;
10769;SDS011;5437;50.852;4.438;2023-06-19T10:33:26;4.03;;;3.63;;
10769;SDS011;5437;50.852;4.438;2023-06-19T10:35:52;6.03;;;3.70;;
10769;SDS011;5437;50.852;4.438;2023-06-19T10:38:19;5.10;;;4.00;;
10769;SDS011;5437;50.852;4.438;2023-06-19T10:40:45;5.20;;;4.35;;
10769;SDS011;5437;50.852;4.438;2023-06-19T10:43:21;4.68;;;3.90;;
10769;SDS011;5437;50.852;4.438;2023-06-19T10:45:49;4.60;;;4.03;;
10769;SDS011;5437;50.852;4.438;2023-06-19T10:48:23;4.65;;;4.10;;
10769;SDS011;5437;50.852;4.438;2023-06-19T10:50:49;5.65;;;3.78;;
10769;SDS011;5437;50.852;4.438;2023-06-19T10:53:29;4.38;;;3.78;;
10769;SDS011;5437;50.852;4.438;2023-06-19T10:56:00;4.97;;;4.22;;
10769;SDS011;5437;50.852;4.438;2023-06-19T10:58:27;4.70;;;3.75;;
10769;SDS011;5437;50.852;4.438;2023-06-19T11:00:53;6.97;;;4.10;;
10769;SDS011;5437;50.852;4.438;2023-06-19T11:03:20;5.20;;;3.88;;
10769;SDS011;5437;50.852;4.438;2023-06-19T11:05:47;5.00;;;4.10;;
10769;SDS011;5437;50.852;4.438;2023-06-19T11:08:21;5.90;;;4.00;;
10769;SDS011;5437;50.852;4.438;2023-06-19T11:10:47;4.60;;;4.03;;
10769;SDS011;5437;50.852;4.438;2023-06-19T11:13:17;4.72;;;3.78;;
10769;SDS011;5437;50.852;4.438;2023-06-19T11:15:44;4.60;;;3.63;;
10769;SDS011;5437;50.852;4.438;2023-06-19T11:18:10;3.97;;;3.60;;
10769;SDS011;5437;50.852;4.438;2023-06-19T11:20:46;5.22;;;3.85;;
10769;SDS011;5437;50.852;4.438;2023-06-19T11:23:14;4.38;;;3.53;;
10769;SDS011;5437;50.852;4.438;2023-06-19T11:25:41;5.85;;;3.72;;
10769;SDS011;5437;50.852;4.438;2023-06-19T11:28:11;5.10;;;4.18;;
10769;SDS011;5437;50.852;4.438;2023-06-19T11:30:38;5.53;;;4.07;;
10769;SDS011;5437;50.852;4.438;2023-06-19T11:33:15;4.78;;;4.10;;
10769;SDS011;5437;50.852;4.438;2023-06-19T11:35:41;5.15;;;3.90;;
10769;SDS011;5437;50.852;4.438;2023-06-19T11:38:16;5.20;;;4.32;;
10769;SDS011;5437;50.852;4.438;2023-06-19T11:40:42;5.68;;;3.90;;
10769;SDS011;5437;50.852;4.438;2023-06-19T11:43:08;5.22;;;4.00;;
10769;SDS011;5437;50.852;4.438;2023-06-19T11:45:44;3.90;;;3.50;;
10769;SDS011;5437;50.852;4.438;2023-06-19T11:48:10;4.95;;;4.00;;
10769;SDS011;5437;50.852;4.438;2023-06-19T11:50:37;6.38;;;4.47;;
10769;SDS011;5437;50.852;4.438;2023-06-19T11:53:04;3.97;;;3.55;;
10769;SDS011;5437;50.852;4.438;2023-06-19T11:55:30;6.15;;;3.95;;
10769;SDS011;5437;50.852;4.438;2023-06-19T11:57:56;4.15;;;3.30;;
10769;SDS011;5437;50.852;4.438;2023-06-19T12:00:22;3.58;;;3.03;;
10769;SDS011;5437;50.852;4.438;2023-06-19T12:02:48;3.40;;;3.00;;
10769;SDS011;5437;50.852;4.438;2023-06-19T12:05:14;3.92;;;3.30;;
10769;SDS011;5437;50.852;4.438;2023-06-19T12:07:40;4.05;;;3.65;;
10769;SDS011;5437;50.852;4.438;2023-06-19T12:10:06;4.10;;;3.00;;
10769;SDS011;5437;50.852;4.438;2023-06-19T12:12:35;4.00;;;3.13;;
10769;SDS011;5437;50.852;4.438;2023-06-19T12:15:02;3.35;;;2.83;;
10769;SDS011;5437;50.852;4.438;2023-06-19T12:17:28;4.03;;;2.85;;
10769;SDS011;5437;50.852;4.438;2023-06-19T12:19:54;4.15;;;3.33;;
10769;SDS011;5437;50.852;4.438;2023-06-19T12:22:20;3.55;;;3.20;;
10769;SDS011;5437;50.852;4.438;2023-06-19T12:24:47;4.00;;;3.40;;
10769;SDS011;5437;50.852;4.438;2023-06-19T12:27:13;3.78;;;3.33;;
10769;SDS011;5437;50.852;4.438;2023-06-19T12:29:39;3.30;;;3.00;;
10769;SDS011;5437;50.852;4.438;2023-06-19T12:32:05;3.60;;;3.30;;
10769;SDS011;5437;50.852;4.438;2023-06-19T12:34:31;4.68;;;3.70;;
10769;SDS011;5437;50.852;4.438;2023-06-19T12:36:57;4.00;;;3.10;;
10769;SDS011;5437;50.852;4.438;2023-06-19T12:39:24;4.60;;;3.03;;
10769;SDS011;5437;50.852;4.438;2023-06-19T12:41:50;3.67;;;3.05;;
10769;SDS011;5437;50.852;4.438;2023-06-19T12:44:16;3.95;;;2.95;;
10769;SDS011;5437;50.852;4.438;2023-06-19T12:46:42;3.55;;;2.80;;
10769;SDS011;5437;50.852;4.438;2023-06-19T12:49:08;5.53;;;3.25;;
10769;SDS011;5437;50.852;4.438;2023-06-19T12:51:34;3.63;;;3.20;;
10769;SDS011;5437;50.852;4.438;2023-06-19T12:54:00;3.45;;;3.10;;
10769;SDS011;5437;50.852;4.438;2023-06-19T12:56:26;3.33;;;2.70;;
10769;SDS011;5437;50.852;4.438;2023-06-19T12:58:52;3.58;;;2.90;;
10769;SDS011;5437;50.852;4.438;2023-06-19T13:01:19;4.90;;;2.67;;
10769;SDS011;5437;50.852;4.438;2023-06-19T13:03:45;3.17;;;2.88;;
10769;SDS011;5437;50.852;4.438;2023-06-19T13:06:11;3.33;;;2.70;;
10769;SDS011;5437;50.852;4.438;2023-06-19T13:08:37;4.03;;;3.00;;
10769;SDS011;5437;50.852;4.438;2023-06-19T13:11:03;3.47;;;2.78;;
10769;SDS011;5437;50.852;4.438;2023-06-19T13:13:29;3.85;;;3.13;;
10769;SDS011;5437;50.852;4.438;2023-06-19T13:15:55;2.92;;;2.70;;
10769;SDS011;5437;50.852;4.438;2023-06-19T13:18:21;4.05;;;3.08;;
10769;SDS011;5437;50.852;4.438;2023-06-19T13:20:47;3.22;;;2.78;;
10769;SDS011;5437;50.852;4.438;2023-06-19T13:23:14;3.30;;;2.97;;
10769;SDS011;5437;50.852;4.438;2023-06-19T13:25:40;2.83;;;2.53;;
10769;SDS011;5437;50.852;4.438;2023-06-19T13:28:06;3.05;;;2.65;;
10769;SDS011;5437;50.852;4.438;2023-06-19T13:30:32;3.55;;;2.63;;
10769;SDS011;5437;50.852;4.438;2023-06-19T13:32:58;2.85;;;2.47;;
10769;SDS011;5437;50.852;4.438;2023-06-19T13:35:24;2.67;;;2.47;;
10769;SDS011;5437;50.852;4.438;2023-06-19T13:37:50;3.47;;;2.83;;
10769;SDS011;5437;50.852;4.438;2023-06-19T13:40:16;3.00;;;2.70;;
10769;SDS011;5437;50.852;4.438;2023-06-19T13:42:42;3.10;;;2.67;;
10769;SDS011;5437;50.852;4.438;2023-06-19T13:45:08;4.15;;;3.10;;
10769;SDS011;5437;50.852;4.438;2023-06-19T13:47:35;3.95;;;2.78;;
10769;SDS011;5437;50.852;4.438;2023-06-19T13:50:01;3.47;;;3.17;;
10769;SDS011;5437;50.852;4.438;2023-06-19T13:52:27;3.08;;;2.67;;
10769;SDS011;5437;50.852;4.438;2023-06-19T13:54:53;3.55;;;2.85;;
10769;SDS011;5437;50.852;4.438;2023-06-19T13:57:19;3.38;;;2.60;;
10769;SDS011;5437;50.852;4.438;2023-06-19T13:59:45;2.88;;;2.60;;
10769;SDS011;5437;50.852;4.438;2023-06-19T14:02:12;2.83;;;2.53;;
10769;SDS011;5437;50.852;4.438;2023-06-19T14:04:38;3.67;;;2.70;;
10769;SDS011;5437;50.852;4.438;2023-06-19T14:07:04;3.00;;;2.70;;
10769;SDS011;5437;50.852;4.438;2023-06-19T14:09:30;3.42;;;2.50;;
10769;SDS011;5437;50.852;4.438;2023-06-19T14:11:56;2.80;;;2.55;;
10769;SDS011;5437;50.852;4.438;2023-06-19T14:14:23;3.58;;;2.63;;
10769;SDS011;5437;50.852;4.438;2023-06-19T14:16:49;3.28;;;2.45;;
10769;SDS011;5437;50.852;4.438;2023-06-19T14:19:15;2.90;;;2.60;;
10769;SDS011;5437;50.852;4.438;2023-06-19T14:21:42;3.65;;;2.60;;
10769;SDS011;5437;50.852;4.438;2023-06-19T14:24:08;3.05;;;2.75;;
10769;SDS011;5437;50.852;4.438;2023-06-19T14:26:34;2.50;;;2.30;;
10769;SDS011;5437;50.852;4.438;2023-06-19T14:29:00;2.75;;;2.55;;
10769;SDS011;5437;50.852;4.438;2023-06-19T14:31:26;3.95;;;2.83;;
10769;SDS011;5437;50.852;4.438;2023-06-19T14:33:52;3.88;;;3.00;;
10769;SDS011;5437;50.852;4.438;2023-06-19T14:36:18;3.33;;;2.72;;
10769;SDS011;5437;50.852;4.438;2023-06-19T14:38:44;2.95;;;2.67;;
10769;SDS011;5437;50.852;4.438;2023-06-19T14:41:10;3.55;;;2.88;;
10769;SDS011;5437;50.852;4.438;2023-06-19T14:43:39;4.13;;;2.60;;
10769;SDS011;5437;50.852;4.438;2023-06-19T14:46:05;2.78;;;2.28;;
10769;SDS011;5437;50.852;4.438;2023-06-19T14:48:31;3.83;;;2.28;;
10769;SDS011;5437;50.852;4.438;2023-06-19T14:50:57;3.78;;;2.83;;
10769;SDS011;5437;50.852;4.438;2023-06-19T14:53:23;2.88;;;2.50;;
10769;SDS011;5437;50.852;4.438;2023-06-19T14:55:49;2.50;;;2.20;;
10769;SDS011;5437;50.852;4.438;2023-06-19T14:58:16;2.67;;;2.47;;
10769;SDS011;5437;50.852;4.438;2023-06-19T15:00:42;4.50;;;2.50;;